Time;durP1;ratioP1;P1;durP2;ratioP2;P2;SDS_P1;SDS_P2;PMS_P1;PMS_P2;Temp;Humidity;BMP_temperature;BMP_pressure;BME280_temperature;BME280_humidity;BME280_pressure;Samples;Min_cycle;Max_cycle;Signal;HPM_P1;HPM_P2
2021/03/16 00:00:50;;;;;;;13.77;13.07;;;21.80;99.90;;;;;;5093213;28;20095;-69
2021/03/16 00:03:18;;;;;;;13.68;12.98;;;21.40;99.90;;;;;;5093473;28;20119;-71
2021/03/16 00:05:46;;;;;;;13.52;12.82;;;21.30;99.90;;;;;;5093445;28;20024;-71
2021/03/16 00:08:13;;;;;;;14.75;13.95;;;21.00;99.90;;;;;;5093152;28;20028;-70
2021/03/16 00:10:41;;;;;;;14.65;13.80;;;20.80;99.90;;;;;;5092093;28;20036;-69
2021/03/16 00:13:09;;;;;;;14.80;14.20;;;20.90;99.90;;;;;;5093094;28;20366;-70
2021/03/16 00:15:36;;;;;;;16.30;15.45;;;20.90;99.90;;;;;;5093204;28;20024;-69
2021/03/16 00:18:07;;;;;;;15.02;14.32;;;21.20;99.90;;;;;;5093188;28;20074;-70
2021/03/16 00:20:34;;;;;;;14.73;14.05;;;21.50;99.90;;;;;;5093177;28;20058;-69
2021/03/16 00:23:01;;;;;;;14.40;13.60;;;21.60;99.90;;;;;;5092937;28;20396;-69
2021/03/16 00:25:29;;;;;;;13.50;12.80;;;21.40;99.90;;;;;;5093081;28;20016;-67
2021/03/16 00:27:56;;;;;;;13.80;13.10;;;21.40;99.90;;;;;;5091483;28;20028;-67
2021/03/16 00:30:24;;;;;;;13.52;12.93;;;21.50;99.90;;;;;;5092658;28;20024;-68
2021/03/16 00:32:51;;;;;;;13.20;12.50;;;21.90;99.90;;;;;;5094386;28;20028;-68
2021/03/16 00:35:19;;;;;;;12.00;11.40;;;22.20;99.90;;;;;;5096995;28;20135;-67
2021/03/16 00:37:46;;;;;;;12.00;11.40;;;22.20;99.90;;;;;;5097670;28;20024;-67
2021/03/16 00:40:14;;;;;;;11.80;11.20;;;22.40;99.90;;;;;;5096759;28;20044;-69
2021/03/16 00:42:41;;;;;;;10.73;10.23;;;22.40;99.90;;;;;;5096870;28;20069;-68
2021/03/16 00:45:09;;;;;;;11.48;10.98;;;22.20;99.90;;;;;;5096824;28;20020;-67
2021/03/16 00:47:37;;;;;;;11.52;10.98;;;21.90;99.90;;;;;;5097013;28;20023;-67
2021/03/16 00:50:06;;;;;;;12.20;11.23;;;22.20;99.90;;;;;;5097316;28;20399;-68
2021/03/16 00:52:34;;;;;;;10.38;9.85;;;22.40;99.90;;;;;;5096626;28;20464;-67
2021/03/16 00:55:01;;;;;;;10.85;10.25;;;21.90;99.90;;;;;;5096710;28;20020;-67
2021/03/16 00:57:29;;;;;;;11.05;10.25;;;22.00;99.90;;;;;;5096667;28;20020;-67
2021/03/16 00:59:56;;;;;;;11.27;10.77;;;22.00;99.90;;;;;;5096480;28;20019;-68
2021/03/16 01:02:24;;;;;;;11.10;10.60;;;22.00;99.90;;;;;;5096352;28;20027;-68
2021/03/16 01:04:51;;;;;;;11.05;10.40;;;22.30;99.90;;;;;;5096248;28;20028;-67
2021/03/16 01:07:18;;;;;;;10.52;10.00;;;22.00;99.90;;;;;;5096313;28;20107;-67
2021/03/16 01:09:46;;;;;;;10.50;10.10;;;21.80;99.90;;;;;;5095054;28;20028;-67
2021/03/16 01:12:13;;;;;;;11.20;10.60;;;21.70;99.90;;;;;;5094871;28;20020;-68
2021/03/16 01:14:40;;;;;;;10.98;10.57;;;21.90;99.90;;;;;;5096004;28;20020;-67
2021/03/16 01:17:08;;;;;;;11.82;11.23;;;22.00;99.90;;;;;;5095913;28;20444;-68
2021/03/16 01:19:35;;;;;;;12.45;11.90;;;21.60;99.90;;;;;;5096643;28;20023;-67
2021/03/16 01:22:02;;;;;;;12.45;11.85;;;21.30;99.90;;;;;;5096243;28;20081;-67
2021/03/16 01:24:30;;;;;;;12.40;11.80;;;21.80;99.90;;;;;;5096338;28;20448;-68
2021/03/16 01:26:57;;;;;;;11.40;10.90;;;22.30;99.90;;;;;;5096094;28;20047;-68
2021/03/16 01:29:24;;;;;;;10.60;10.10;;;22.70;99.90;;;;;;5095792;28;20055;-68
2021/03/16 01:31:52;;;;;;;10.45;9.90;;;22.60;99.90;;;;;;5094484;28;20525;-68
2021/03/16 01:34:19;;;;;;;11.13;10.63;;;22.60;99.90;;;;;;5095844;28;20100;-68
2021/03/16 01:36:46;;;;;;;11.75;10.85;;;21.90;99.90;;;;;;5095891;28;20023;-68
2021/03/16 01:39:14;;;;;;;11.25;10.55;;;22.00;99.90;;;;;;5095681;28;20036;-68
2021/03/16 01:41:41;;;;;;;11.30;10.70;;;22.10;99.90;;;;;;5095735;28;20068;-65
2021/03/16 01:44:08;;;;;;;11.30;10.80;;;22.10;99.90;;;;;;5094260;28;20016;-66
2021/03/16 01:46:36;;;;;;;10.95;10.38;;;21.80;99.90;;;;;;5095687;28;20479;-70
2021/03/16 01:49:03;;;;;;;10.50;10.10;;;21.90;99.90;;;;;;5095541;28;20065;-64
2021/03/16 01:51:31;;;;;;;10.60;10.13;;;22.40;99.90;;;;;;5095646;28;20020;-68
2021/03/16 01:53:58;;;;;;;10.95;10.35;;;22.50;99.90;;;;;;5095500;28;20028;-66
2021/03/16 01:56:27;;;;;;;10.10;9.50;;;23.10;99.90;;;;;;5095431;28;20469;-65
2021/03/16 01:59:00;;;;;;;10.23;9.73;;;22.80;99.90;;;;;;5095526;28;20085;-63
2021/03/16 02:01:27;;;;;;;9.65;9.20;;;23.00;99.90;;;;;;5095372;28;20028;-66
2021/03/16 02:03:55;;;;;;;9.98;9.27;;;23.20;99.90;;;;;;5095392;28;20035;-65
2021/03/16 02:06:35;;;;;;;9.95;9.38;;;23.20;99.90;;;;;;5095637;28;20016;-61
2021/03/16 02:09:22;;;;;;;9.40;9.00;;;23.40;99.90;;;;;;5095249;28;20370;-63
2021/03/16 02:12:00;;;;;;;8.98;8.52;;;23.80;99.90;;;;;;5095467;28;20369;-64
2021/03/16 02:14:30;;;;;;;9.50;9.00;;;23.70;99.90;;;;;;5095833;28;20039;-66
2021/03/16 02:17:12;;;;;;;8.95;8.50;;;23.40;99.90;;;;;;5095266;28;20089;-66
2021/03/16 02:19:57;;;;;;;8.45;7.80;;;23.00;99.90;;;;;;5095345;28;20099;-67
2021/03/16 02:22:28;;;;;;;9.30;8.60;;;22.60;99.90;;;;;;5093685;28;20063;-64
2021/03/16 02:25:08;;;;;;;9.75;9.15;;;22.00;99.90;;;;;;5095258;28;20385;-67
2021/03/16 02:27:53;;;;;;;10.23;9.77;;;21.70;99.90;;;;;;5094911;28;20099;-64
2021/03/16 02:30:20;;;;;;;10.15;9.60;;;21.70;99.90;;;;;;5094806;28;20697;-66
2021/03/16 02:32:49;;;;;;;11.07;10.30;;;22.00;99.90;;;;;;5093390;28;20032;-65
2021/03/16 02:35:18;;;;;;;11.38;10.63;;;21.60;99.90;;;;;;5094847;28;20020;-66
2021/03/16 02:37:47;;;;;;;11.18;10.57;;;21.70;99.90;;;;;;5094576;28;20028;-65
2021/03/16 02:40:17;;;;;;;11.30;10.60;;;21.50;99.90;;;;;;5094541;28;20058;-65
2021/03/16 02:42:45;;;;;;;11.63;10.93;;;21.60;99.90;;;;;;5094920;28;20411;-66
2021/03/16 02:45:13;;;;;;;11.80;11.00;;;21.50;99.90;;;;;;5094420;28;20527;-64
2021/03/16 02:47:41;;;;;;;12.35;11.65;;;21.40;99.90;;;;;;5094561;28;20035;-64
2021/03/16 02:50:10;;;;;;;13.43;12.75;;;21.30;99.90;;;;;;5094337;28;20047;-64
2021/03/16 02:52:38;;;;;;;14.30;13.52;;;21.20;99.90;;;;;;5094320;28;20050;-63
2021/03/16 02:55:07;;;;;;;15.00;14.13;;;21.00;99.90;;;;;;5094183;28;20035;-64
2021/03/16 02:57:37;;;;;;;17.80;17.00;;;21.20;99.90;;;;;;5094277;28;20016;-63
2021/03/16 03:00:06;;;;;;;20.15;19.00;;;21.00;99.90;;;;;;5094584;28;20023;-65
2021/03/16 03:02:34;;;;;;;25.30;23.92;;;20.80;99.90;;;;;;5093626;28;20020;-65
2021/03/16 03:05:03;;;;;;;30.00;28.48;;;20.40;99.90;;;;;;5092849;28;20035;-65
2021/03/16 03:07:30;;;;;;;34.78;33.25;;;20.30;99.90;;;;;;5093848;28;20058;-65
2021/03/16 03:09:58;;;;;;;35.75;34.05;;;20.50;99.90;;;;;;5095047;28;20034;-66
2021/03/16 03:12:26;;;;;;;41.95;39.97;;;20.60;99.90;;;;;;5093921;28;20050;-66
2021/03/16 03:14:53;;;;;;;44.92;42.95;;;20.50;99.90;;;;;;5093985;28;20019;-65
2021/03/16 03:17:20;;;;;;;52.80;50.40;;;20.30;99.90;;;;;;5093916;28;20020;-65
2021/03/16 03:19:48;;;;;;;55.20;52.60;;;20.20;99.90;;;;;;5093887;28;20449;-65
2021/03/16 03:22:42;;;;;;;58.38;55.50;;;20.20;99.90;;;;;;5093744;28;20024;-65
2021/03/16 03:25:15;;;;;;;61.92;58.85;;;20.30;99.90;;;;;;5094104;28;20353;-66
2021/03/16 03:27:48;;;;;;;66.53;62.92;;;20.50;99.90;;;;;;5093733;28;20051;-67
2021/03/16 03:30:17;;;;;;;68.57;64.93;;;20.20;99.90;;;;;;5092839;28;20027;-63
2021/03/16 03:32:44;;;;;;;73.03;69.13;;;20.40;99.90;;;;;;5093550;28;20067;-64
2021/03/16 03:35:14;;;;;;;69.45;65.80;;;20.40;99.90;;;;;;5093565;28;20030;-64
2021/03/16 03:37:44;;;;;;;72.53;68.57;;;20.50;99.90;;;;;;5093390;28;20031;-64
2021/03/16 03:40:13;;;;;;;42.10;39.40;;;20.20;99.90;;;;;;5093343;28;20036;-67
2021/03/16 03:42:41;;;;;;;41.05;38.38;;;20.30;99.90;;;;;;5093508;28;20028;-66
2021/03/16 03:45:12;;;;;;;41.90;39.00;;;20.30;99.90;;;;;;5093408;28;20020;-67
2021/03/16 03:47:44;;;;;;;40.88;38.15;;;20.30;99.90;;;;;;5093315;28;20074;-68
2021/03/16 03:50:14;;;;;;;41.27;38.40;;;20.80;99.90;;;;;;5093378;28;20028;-68
2021/03/16 03:52:43;;;;;;;37.93;35.33;;;21.00;99.90;;;;;;5093228;28;20051;-67
2021/03/16 03:55:11;;;;;;;37.70;35.38;;;21.10;99.90;;;;;;5093574;28;20020;-69
2021/03/16 03:57:41;;;;;;;38.28;35.90;;;21.30;99.90;;;;;;5093379;28;20024;-69
2021/03/16 04:00:15;;;;;;;37.00;34.70;;;21.30;99.90;;;;;;5093133;28;20028;-67
2021/03/16 04:02:43;;;;;;;37.33;35.03;;;21.50;99.90;;;;;;5093276;28;20469;-67
2021/03/16 04:05:14;;;;;;;35.92;33.72;;;21.40;99.90;;;;;;5093618;28;20059;-66
2021/03/16 04:07:42;;;;;;;35.78;33.45;;;21.20;99.90;;;;;;5092376;28;20039;-68
2021/03/16 04:10:13;;;;;;;35.95;33.80;;;21.30;99.90;;;;;;5093468;28;20054;-67
2021/03/16 04:12:40;;;;;;;34.63;32.63;;;21.20;99.90;;;;;;5093614;28;20028;-67
2021/03/16 04:15:10;;;;;;;34.38;32.28;;;21.70;99.90;;;;;;5093106;28;20087;-67
2021/03/16 04:17:38;;;;;;;36.50;34.07;;;21.50;99.90;;;;;;5091719;28;20055;-63
2021/03/16 04:20:08;;;;;;;36.20;33.90;;;21.30;99.90;;;;;;5093104;28;20028;-65
2021/03/16 04:22:36;;;;;;;34.72;32.53;;;21.10;99.90;;;;;;5092943;28;20035;-66
2021/03/16 04:25:05;;;;;;;34.50;32.17;;;21.00;99.90;;;;;;5093068;28;20048;-64
2021/03/16 04:27:33;;;;;;;33.58;31.27;;;20.80;99.90;;;;;;5092934;28;20028;-62
2021/03/16 04:30:01;;;;;;;36.05;33.63;;;20.90;99.90;;;;;;5092829;28;20385;-60
2021/03/16 04:32:28;;;;;;;37.42;35.05;;;20.90;99.90;;;;;;5092838;28;20530;-60
2021/03/16 04:34:55;;;;;;;37.03;34.60;;;20.60;99.90;;;;;;5092878;28;20020;-60
2021/03/16 04:37:23;;;;;;;37.10;35.00;;;20.50;99.90;;;;;;5093014;28;20051;-60
2021/03/16 04:39:50;;;;;;;39.13;36.47;;;20.60;99.90;;;;;;5092710;28;20044;-61
2021/03/16 04:42:18;;;;;;;38.00;35.60;;;20.90;99.90;;;;;;5092839;28;20034;-63
2021/03/16 04:44:45;;;;;;;38.30;35.90;;;20.90;99.90;;;;;;5092846;28;20074;-65
2021/03/16 04:47:12;;;;;;;70.40;66.80;;;21.00;99.90;;;;;;5092850;28;20021;-65
2021/03/16 04:49:43;;;;;;;75.90;72.00;;;20.90;99.90;;;;;;5092994;28;20377;-66
2021/03/16 04:52:10;;;;;;;78.63;74.82;;;20.80;99.90;;;;;;5092606;28;20030;-63
2021/03/16 04:54:37;;;;;;;81.03;76.82;;;20.80;99.90;;;;;;5092740;28;20044;-62
2021/03/16 04:57:05;;;;;;;78.13;73.90;;;20.80;99.90;;;;;;5092656;28;20534;-62
2021/03/16 04:59:32;;;;;;;79.03;74.72;;;20.70;99.90;;;;;;5092687;28;20017;-63
2021/03/16 05:02:00;;;;;;;82.93;78.63;;;20.70;99.90;;;;;;5092629;28;20491;-62
2021/03/16 05:04:28;;;;;;;84.25;79.45;;;20.70;99.90;;;;;;5092576;28;20055;-64
2021/03/16 05:06:55;;;;;;;80.97;76.82;;;20.40;99.90;;;;;;5093183;28;20107;-65
2021/03/16 05:09:22;;;;;;;82.13;77.63;;;20.60;99.90;;;;;;5092573;28;20020;-64
2021/03/16 05:11:50;;;;;;;76.97;72.88;;;20.60;99.90;;;;;;5092317;28;20589;-65
2021/03/16 05:14:17;;;;;;;82.68;78.38;;;20.50;99.90;;;;;;5092265;28;20035;-63
2021/03/16 05:16:44;;;;;;;81.00;76.70;;;20.50;99.90;;;;;;5092391;28;20020;-63
2021/03/16 05:19:12;;;;;;;80.40;75.82;;;20.30;99.90;;;;;;5094298;28;20021;-63
2021/03/16 05:21:40;;;;;;;81.53;77.00;;;20.30;99.90;;;;;;5096783;28;20479;-63
2021/03/16 05:24:09;;;;;;;81.75;77.35;;;20.20;99.90;;;;;;5095998;28;20507;-63
2021/03/16 05:26:36;;;;;;;87.00;82.07;;;20.30;99.90;;;;;;5096205;28;20020;-64
2021/03/16 05:29:04;;;;;;;88.50;83.70;;;20.20;99.90;;;;;;5096294;28;20024;-64
2021/03/16 05:31:31;;;;;;;87.60;82.60;;;20.10;99.90;;;;;;5095910;28;20549;-64
2021/03/16 05:33:59;;;;;;;86.68;81.88;;;20.20;99.90;;;;;;5095666;28;20471;-63
2021/03/16 05:36:26;;;;;;;86.97;82.05;;;20.10;99.90;;;;;;5095745;28;20016;-64
2021/03/16 05:38:53;;;;;;;85.18;80.43;;;20.10;99.90;;;;;;5095972;28;20085;-64
2021/03/16 05:41:23;;;;;;;86.70;81.82;;;20.10;99.90;;;;;;5095626;28;20073;-64
2021/03/16 05:43:50;;;;;;;84.22;79.72;;;20.30;99.90;;;;;;5095500;28;20045;-64
2021/03/16 05:46:18;;;;;;;85.32;80.53;;;20.20;99.90;;;;;;5096115;28;20410;-64
2021/03/16 05:48:54;;;;;;;83.93;79.05;;;20.20;99.90;;;;;;5095700;28;20052;-64
2021/03/16 05:51:21;;;;;;;87.13;82.13;;;20.20;99.90;;;;;;5095672;28;20024;-64
2021/03/16 05:53:52;;;;;;;86.47;81.25;;;20.20;99.90;;;;;;5095329;28;20107;-64
2021/03/16 05:56:19;;;;;;;86.85;81.90;;;20.30;99.90;;;;;;5095628;28;20035;-64
2021/03/16 05:58:47;;;;;;;82.53;77.75;;;20.40;99.90;;;;;;5095326;28;20028;-64
2021/03/16 06:01:16;;;;;;;80.82;76.13;;;20.40;99.90;;;;;;5095187;28;20022;-64
2021/03/16 06:03:46;;;;;;;83.65;78.95;;;20.30;99.90;;;;;;5095067;28;20082;-65
2021/03/16 06:06:13;;;;;;;85.72;80.75;;;20.10;99.90;;;;;;5095154;28;20024;-66
2021/03/16 06:08:41;;;;;;;87.47;82.47;;;20.10;99.90;;;;;;5094974;28;20024;-65
2021/03/16 06:11:12;;;;;;;84.95;79.97;;;20.00;99.90;;;;;;5094763;28;20493;-64
2021/03/16 06:13:52;;;;;;;89.90;85.00;;;20.00;99.90;;;;;;5094915;28;20357;-64
2021/03/16 06:16:19;;;;;;;87.03;82.20;;;20.00;99.90;;;;;;5094876;28;20461;-64
2021/03/16 06:18:49;;;;;;;84.68;79.97;;;20.00;99.90;;;;;;5094824;28;20016;-64
2021/03/16 06:21:22;;;;;;;81.63;77.22;;;20.20;99.90;;;;;;5094890;28;20012;-64
2021/03/16 06:23:58;;;;;;;78.82;74.43;;;20.10;99.90;;;;;;5094800;28;20069;-64
2021/03/16 06:26:28;;;;;;;76.13;71.72;;;20.00;99.90;;;;;;5095109;28;20024;-65
2021/03/16 06:29:08;;;;;;;78.85;74.45;;;20.00;99.90;;;;;;5094682;28;20488;-64
2021/03/16 06:31:36;;;;;;;78.03;73.63;;;19.80;99.90;;;;;;5093910;28;20039;-64
2021/03/16 06:34:04;;;;;;;77.15;72.72;;;19.90;99.90;;;;;;5094622;28;20024;-64
2021/03/16 06:36:34;;;;;;;79.65;74.97;;;19.80;99.90;;;;;;5094505;28;20020;-63
2021/03/16 06:39:03;;;;;;;68.63;64.55;;;19.90;99.90;;;;;;5094391;28;20047;-64
2021/03/16 06:41:36;;;;;;;76.32;71.93;;;19.90;99.90;;;;;;5094509;28;20337;-64
2021/03/16 06:44:05;;;;;;;78.63;74.13;;;19.90;99.90;;;;;;5094796;28;20410;-64
2021/03/16 06:46:37;;;;;;;82.43;77.63;;;19.80;99.90;;;;;;5094433;28;20027;-65
2021/03/16 06:49:18;;;;;;;84.13;79.32;;;19.80;99.90;;;;;;5094288;28;20063;-64
2021/03/16 06:51:46;;;;;;;84.35;79.63;;;19.70;99.90;;;;;;5094223;28;20076;-64
2021/03/16 06:54:19;;;;;;;84.65;79.80;;;19.50;99.90;;;;;;5092790;28;20032;-64
2021/03/16 06:56:54;;;;;;;82.63;78.05;;;19.50;99.90;;;;;;5094273;28;20048;-64
2021/03/16 06:59:24;;;;;;;86.10;81.32;;;19.50;99.90;;;;;;5094078;28;20054;-64
2021/03/16 07:01:52;;;;;;;85.82;80.93;;;19.70;99.90;;;;;;5094053;28;20434;-64
2021/03/16 07:04:21;;;;;;;83.32;78.70;;;19.80;99.90;;;;;;5094416;28;20490;-63
2021/03/16 07:06:49;;;;;;;78.55;74.05;;;19.80;99.90;;;;;;5092527;28;20074;-64
2021/03/16 07:09:19;;;;;;;78.60;73.90;;;19.80;99.90;;;;;;5093904;28;20019;-64
2021/03/16 07:11:52;;;;;;;74.25;69.70;;;20.00;99.90;;;;;;5093878;28;20028;-64
2021/03/16 07:14:22;;;;;;;67.50;63.38;;;20.00;99.90;;;;;;5093901;28;20051;-64
2021/03/16 07:16:51;;;;;;;67.38;63.08;;;20.00;99.90;;;;;;5093901;28;20027;-64
2021/03/16 07:19:20;;;;;;;70.70;66.35;;;19.90;99.90;;;;;;5093642;28;20074;-64
2021/03/16 07:21:53;;;;;;;72.88;67.90;;;19.90;99.90;;;;;;5093773;28;20024;-65
2021/03/16 07:24:24;;;;;;;68.05;63.80;;;19.70;99.90;;;;;;5093735;28;20095;-64
2021/03/16 07:26:53;;;;;;;72.43;68.03;;;19.70;99.90;;;;;;5093559;28;20491;-64
2021/03/16 07:29:22;;;;;;;70.15;65.95;;;19.70;99.90;;;;;;5093480;28;20486;-65
2021/03/16 07:31:51;;;;;;;74.50;70.00;;;19.60;99.90;;;;;;5093670;28;20473;-64
2021/03/16 07:34:19;;;;;;;75.78;71.30;;;19.70;99.90;;;;;;5093559;28;20050;-66
2021/03/16 07:36:53;;;;;;;79.25;74.43;;;19.70;99.90;;;;;;5093416;28;20476;-67
2021/03/16 07:39:23;;;;;;;74.43;69.97;;;19.60;99.90;;;;;;5093237;28;20545;-68
2021/03/16 07:41:51;;;;;;;71.38;66.97;;;19.60;99.90;;;;;;5093406;28;20031;-65
2021/03/16 07:44:20;;;;;;;75.57;71.28;;;19.50;99.90;;;;;;5093270;28;20024;-65
2021/03/16 07:46:59;;;;;;;74.30;69.55;;;19.50;99.90;;;;;;5093216;28;20016;-65
2021/03/16 07:49:44;;;;;;;73.80;69.30;;;19.40;99.90;;;;;;5093135;28;20472;-64
2021/03/16 07:52:19;;;;;;;75.15;70.38;;;19.40;99.90;;;;;;5093029;28;20473;-64
2021/03/16 07:54:52;;;;;;;78.05;73.00;;;19.30;99.90;;;;;;5093723;28;20369;-65
2021/03/16 07:57:26;;;;;;;77.00;71.50;;;19.30;99.90;;;;;;5093117;28;20054;-65
2021/03/16 08:00:01;;;;;;;76.93;71.53;;;19.10;99.90;;;;;;5093008;28;20027;-69
2021/03/16 08:02:33;;;;;;;73.05;68.35;;;19.20;99.90;;;;;;5093131;28;20383;-69
2021/03/16 08:05:00;;;;;;;72.22;67.10;;;19.20;99.90;;;;;;5093019;28;20149;-68
2021/03/16 08:07:31;;;;;;;73.75;68.75;;;19.30;99.90;;;;;;5091758;28;20055;-69
2021/03/16 08:09:59;;;;;;;74.93;69.68;;;19.30;99.90;;;;;;5093317;28;20472;-68
2021/03/16 08:12:29;;;;;;;73.07;68.18;;;19.30;99.90;;;;;;5093091;28;20051;-69
2021/03/16 08:14:57;;;;;;;74.47;69.35;;;19.30;99.90;;;;;;5093073;28;20027;-69
2021/03/16 08:17:38;;;;;;;75.65;70.60;;;19.30;99.90;;;;;;5092720;28;20024;-71
2021/03/16 08:20:06;;;;;;;75.82;70.93;;;19.30;99.90;;;;;;5093170;28;20064;-71
2021/03/16 08:22:34;;;;;;;66.72;62.15;;;19.30;99.90;;;;;;5091613;28;20024;-68
2021/03/16 08:25:01;;;;;;;67.35;62.72;;;19.30;99.90;;;;;;5092781;28;20016;-68
2021/03/16 08:27:35;;;;;;;71.72;66.75;;;19.20;99.90;;;;;;5092760;28;20074;-68
2021/03/16 08:30:09;;;;;;;63.22;58.17;;;19.10;99.90;;;;;;5092842;28;20027;-69
2021/03/16 08:32:38;;;;;;;59.97;55.55;;;19.10;99.90;;;;;;5092840;28;20108;-63
2021/03/16 08:35:06;;;;;;;63.88;59.67;;;19.10;99.90;;;;;;5092842;28;20042;-63
2021/03/16 08:37:39;;;;;;;64.78;60.40;;;19.10;99.90;;;;;;5092901;28;20111;-63
2021/03/16 08:40:09;;;;;;;65.40;60.92;;;19.10;99.90;;;;;;5092704;28;20063;-63
2021/03/16 08:42:36;;;;;;;61.05;57.00;;;19.10;99.90;;;;;;5091360;28;20028;-63
2021/03/16 08:45:04;;;;;;;63.50;59.22;;;19.10;99.90;;;;;;5092781;28;20384;-64
2021/03/16 08:47:32;;;;;;;61.90;57.63;;;19.10;99.90;;;;;;5092783;28;20100;-64
2021/03/16 08:49:59;;;;;;;66.80;61.78;;;19.10;99.90;;;;;;5092694;28;20077;-63
2021/03/16 08:52:28;;;;;;;61.53;57.13;;;19.10;99.90;;;;;;5091258;28;20426;-63
2021/03/16 08:54:58;;;;;;;64.90;59.70;;;19.10;99.90;;;;;;5095897;28;20016;-63
2021/03/16 08:57:30;;;;;;;64.50;60.07;;;19.10;99.90;;;;;;5095307;28;20475;-64
2021/03/16 09:00:01;;;;;;;69.57;64.88;;;19.10;99.90;;;;;;5096586;28;20129;-64
2021/03/16 09:02:35;;;;;;;72.53;67.47;;;19.10;99.90;;;;;;5096860;28;20088;-64
2021/03/16 09:05:03;;;;;;;74.80;70.00;;;19.10;99.90;;;;;;5096451;28;20086;-65
2021/03/16 09:07:33;;;;;;;73.43;68.65;;;19.00;99.90;;;;;;5096458;28;20035;-66
2021/03/16 09:10:09;;;;;;;70.47;65.75;;;19.00;99.90;;;;;;5096530;28;20036;-66
2021/03/16 09:12:41;;;;;;;68.53;64.05;;;19.00;99.90;;;;;;5096184;28;20507;-66
2021/03/16 09:15:14;;;;;;;69.15;64.75;;;19.10;99.90;;;;;;5096771;28;20475;-68
2021/03/16 09:17:43;;;;;;;68.85;64.45;;;19.10;99.90;;;;;;5096231;28;20024;-66
2021/03/16 09:20:16;;;;;;;66.63;62.15;;;19.10;99.90;;;;;;5096009;28;20418;-67
2021/03/16 09:22:51;;;;;;;64.68;60.10;;;19.10;99.90;;;;;;5096225;28;20093;-67
2021/03/16 09:25:18;;;;;;;65.63;61.25;;;19.20;99.90;;;;;;5096341;28;20024;-65
2021/03/16 09:27:49;;;;;;;65.28;60.72;;;19.20;99.90;;;;;;5094630;28;20028;-67
2021/03/16 09:30:18;;;;;;;64.15;59.55;;;19.30;99.90;;;;;;5095786;28;20059;-67
2021/03/16 09:32:47;;;;;;;64.18;59.65;;;19.30;99.90;;;;;;5095868;28;20095;-68
2021/03/16 09:35:18;;;;;;;65.40;60.55;;;19.40;99.90;;;;;;5095673;28;20077;-68
2021/03/16 09:37:47;;;;;;;63.22;59.03;;;19.40;99.90;;;;;;5096156;28;20469;-68
2021/03/16 09:40:16;;;;;;;63.13;58.72;;;19.40;99.90;;;;;;5095568;28;20504;-68
2021/03/16 09:42:47;;;;;;;62.85;58.63;;;19.30;99.90;;;;;;5096015;28;20024;-67
2021/03/16 09:45:33;;;;;;;64.88;60.13;;;19.30;99.90;;;;;;5095730;28;20093;-68
2021/03/16 09:48:00;;;;;;;65.32;60.83;;;19.30;99.90;;;;;;5094297;28;20028;-68
2021/03/16 09:50:35;;;;;;;64.47;59.78;;;19.30;99.90;;;;;;5095639;28;20031;-68
2021/03/16 09:53:05;;;;;;;67.78;62.97;;;19.30;99.90;;;;;;5095536;28;20020;-68
2021/03/16 09:55:33;;;;;;;66.97;62.25;;;19.30;99.90;;;;;;5095582;28;20024;-68
2021/03/16 09:58:01;;;;;;;66.10;61.17;;;19.40;99.90;;;;;;5095453;28;20426;-69
2021/03/16 10:00:30;;;;;;;66.35;61.42;;;19.50;99.90;;;;;;5095415;28;20456;-67
2021/03/16 10:03:06;;;;;;;63.95;59.53;;;19.50;99.90;;;;;;5095396;28;20024;-67
2021/03/16 10:05:34;;;;;;;63.67;59.08;;;19.60;99.90;;;;;;5094227;28;20024;-68
2021/03/16 10:08:01;;;;;;;63.60;58.90;;;19.60;99.90;;;;;;5095746;28;20022;-67
2021/03/16 10:10:33;;;;;;;64.63;59.70;;;19.60;99.90;;;;;;5095503;28;20038;-68
2021/03/16 10:13:07;;;;;;;65.15;60.28;;;19.60;99.90;;;;;;5095272;28;20024;-67
2021/03/16 10:15:43;;;;;;;63.75;59.22;;;19.60;99.90;;;;;;5095168;28;20091;-68
2021/03/16 10:18:12;;;;;;;60.65;56.30;;;19.60;99.90;;;;;;5094903;28;20061;-68
2021/03/16 10:20:42;;;;;;;58.92;54.65;;;19.60;99.90;;;;;;5095660;28;20020;-67
2021/03/16 10:23:18;;;;;;;61.25;56.60;;;19.60;99.90;;;;;;5095135;28;20074;-68
2021/03/16 10:25:55;;;;;;;61.30;56.80;;;19.70;99.90;;;;;;5095354;28;20073;-67
2021/03/16 10:28:35;;;;;;;59.13;54.78;;;19.70;99.90;;;;;;5094856;28;20492;-67
2021/03/16 10:31:18;;;;;;;56.53;52.15;;;19.60;99.90;;;;;;5094706;28;20082;-67
2021/03/16 10:33:48;;;;;;;58.53;54.63;;;19.70;99.90;;;;;;5094596;28;20035;-68
2021/03/16 10:36:16;;;;;;;59.25;55.08;;;19.60;99.90;;;;;;5094963;28;20432;-67
2021/03/16 10:38:48;;;;;;;58.95;54.85;;;19.60;99.90;;;;;;5094313;28;20103;-66
2021/03/16 10:41:16;;;;;;;59.42;55.22;;;19.60;99.90;;;;;;5094517;28;20468;-67
2021/03/16 10:43:44;;;;;;;56.25;52.38;;;19.70;99.90;;;;;;5094441;28;20045;-68
2021/03/16 10:46:11;;;;;;;53.65;49.78;;;19.70;99.90;;;;;;5094468;28;20034;-67
2021/03/16 10:48:39;;;;;;;55.35;51.40;;;19.70;99.90;;;;;;5095121;28;20020;-68
2021/03/16 10:51:07;;;;;;;57.55;53.80;;;19.70;99.90;;;;;;5094307;28;20028;-67
2021/03/16 10:53:34;;;;;;;55.63;51.92;;;19.70;99.90;;;;;;5092833;28;20511;-69
2021/03/16 10:56:05;;;;;;;59.03;54.90;;;19.70;99.90;;;;;;5094159;28;20024;-67
2021/03/16 10:58:33;;;;;;;59.80;55.15;;;19.70;99.90;;;;;;5094199;28;20023;-68
2021/03/16 11:01:01;;;;;;;61.83;57.78;;;19.60;99.90;;;;;;5094059;28;20016;-67
2021/03/16 11:03:28;;;;;;;64.60;60.45;;;19.50;99.90;;;;;;5094016;28;20050;-66
2021/03/16 11:05:56;;;;;;;69.28;63.67;;;19.40;99.90;;;;;;5094026;28;20099;-66
2021/03/16 11:08:23;;;;;;;65.90;61.40;;;19.30;99.90;;;;;;5093997;28;20453;-66
2021/03/16 11:10:50;;;;;;;64.50;60.47;;;19.30;99.90;;;;;;5093994;28;20028;-68
2021/03/16 11:13:18;;;;;;;65.90;61.47;;;19.40;99.90;;;;;;5093864;28;20120;-67
2021/03/16 11:15:48;;;;;;;69.13;64.55;;;19.30;99.90;;;;;;5093778;28;20032;-67
2021/03/16 11:18:17;;;;;;;67.18;62.55;;;19.30;99.90;;;;;;5093834;28;20025;-67
2021/03/16 11:20:44;;;;;;;69.95;65.28;;;19.30;99.90;;;;;;5093892;28;20427;-68
2021/03/16 11:23:12;;;;;;;68.43;64.18;;;19.30;99.90;;;;;;5093722;28;20024;-67
2021/03/16 11:25:39;;;;;;;64.45;59.75;;;19.30;99.90;;;;;;5093977;28;20078;-67
2021/03/16 11:28:07;;;;;;;65.03;60.17;;;19.40;99.90;;;;;;5093771;28;20031;-67
2021/03/16 11:30:37;;;;;;;66.40;61.30;;;19.40;99.90;;;;;;5093669;28;20020;-67
2021/03/16 11:33:05;;;;;;;65.05;60.72;;;19.40;99.90;;;;;;5093551;28;20089;-67
2021/03/16 11:35:34;;;;;;;63.80;59.80;;;19.50;99.90;;;;;;5093377;28;20024;-67
2021/03/16 11:38:01;;;;;;;63.47;59.45;;;19.50;99.90;;;;;;5092369;28;20016;-68
2021/03/16 11:40:29;;;;;;;64.38;60.05;;;19.50;99.90;;;;;;5093410;28;20459;-67
2021/03/16 11:42:56;;;;;;;62.10;58.33;;;19.60;99.90;;;;;;5093451;28;20024;-68
2021/03/16 11:45:24;;;;;;;66.03;61.30;;;19.50;99.90;;;;;;5093485;28;20062;-67
2021/03/16 11:47:51;;;;;;;62.25;57.72;;;19.60;99.90;;;;;;5093299;28;20028;-67
2021/03/16 11:50:18;;;;;;;63.28;58.70;;;19.60;99.90;;;;;;5092096;28;20113;-67
2021/03/16 11:52:46;;;;;;;57.65;53.78;;;19.70;99.90;;;;;;5093345;28;20361;-67
2021/03/16 11:55:15;;;;;;;59.80;55.10;;;19.70;99.90;;;;;;5093325;28;20477;-66
2021/03/16 11:57:43;;;;;;;53.70;50.10;;;19.60;99.90;;;;;;5093277;28;20153;-67
2021/03/16 12:00:11;;;;;;;54.05;50.13;;;19.60;99.90;;;;;;5093249;28;20264;-67
2021/03/16 12:02:38;;;;;;;51.25;48.00;;;19.60;99.90;;;;;;5093154;28;20028;-67
2021/03/16 12:05:06;;;;;;;51.75;48.47;;;19.60;99.90;;;;;;5093357;28;20024;-67
2021/03/16 12:07:33;;;;;;;53.05;49.67;;;19.50;99.90;;;;;;5093176;28;20425;-68
2021/03/16 12:10:01;;;;;;;52.95;49.85;;;19.50;99.90;;;;;;5093171;28;20016;-68
2021/03/16 12:12:28;;;;;;;51.38;48.22;;;19.50;99.90;;;;;;5093170;28;20040;-68
2021/03/16 12:14:55;;;;;;;51.88;47.97;;;19.50;99.90;;;;;;5093406;28;20506;-68
2021/03/16 12:17:23;;;;;;;52.95;49.45;;;19.50;99.90;;;;;;5093154;28;20012;-67
2021/03/16 12:19:50;;;;;;;53.08;49.17;;;19.50;99.90;;;;;;5093063;28;20044;-67
2021/03/16 12:22:17;;;;;;;52.53;48.63;;;19.50;99.90;;;;;;5093070;28;20567;-67
2021/03/16 12:24:45;;;;;;;53.50;50.08;;;19.50;99.90;;;;;;5093019;28;20059;-67
2021/03/16 12:27:12;;;;;;;51.92;48.42;;;19.60;99.90;;;;;;5092959;28;20052;-67
2021/03/16 12:29:40;;;;;;;52.97;49.08;;;19.50;99.90;;;;;;5096022;28;20035;-68
2021/03/16 12:32:09;;;;;;;53.58;49.97;;;19.50;99.90;;;;;;5097076;28;20054;-67
2021/03/16 12:34:36;;;;;;;51.38;47.78;;;19.50;99.90;;;;;;5097376;28;20016;-68
2021/03/16 12:37:04;;;;;;;52.45;49.03;;;19.60;99.90;;;;;;5097269;28;20461;-68
2021/03/16 12:39:32;;;;;;;52.97;49.15;;;19.50;99.90;;;;;;5096804;28;20118;-68